Time;durP1;ratioP1;P1;durP2;ratioP2;P2;SDS_P1;SDS_P2;PMS_P1;PMS_P2;Temp;Humidity;BMP_temperature;BMP_pressure;BME280_temperature;BME280_humidity;BME280_pressure;Samples;Min_cycle;Max_cycle;Signal;HPM_P1;HPM_P2
2021/03/28 00:00:54;;;;;;;8.55;3.22;;;6.60;99.90;;;;;;5005641;28;20134;-89
2021/03/28 00:03:42;;;;;;;10.82;3.28;;;6.60;99.90;;;;;;4994422;28;20066;-91
2021/03/28 00:06:32;;;;;;;11.95;3.25;;;6.60;99.90;;;;;;5002193;28;20120;-90
2021/03/28 00:09:12;;;;;;;11.38;4.05;;;6.70;99.90;;;;;;5005353;28;20030;-90
2021/03/28 00:12:04;;;;;;;8.80;3.30;;;6.60;99.90;;;;;;4980527;28;20037;-90
2021/03/28 00:15:01;;;;;;;11.88;3.70;;;6.60;99.90;;;;;;4997582;28;20031;-90
2021/03/28 00:17:35;;;;;;;10.23;3.03;;;6.60;99.90;;;;;;5005320;28;20051;-90
2021/03/28 00:20:09;;;;;;;11.15;4.03;;;6.50;99.90;;;;;;4998954;28;20026;-90
2021/03/28 00:22:41;;;;;;;13.20;3.50;;;6.60;99.90;;;;;;5007220;28;20033;-90
2021/03/28 00:25:26;;;;;;;11.45;3.83;;;6.60;99.90;;;;;;4992997;28;20026;-90
2021/03/28 00:27:54;;;;;;;8.80;3.15;;;6.60;99.90;;;;;;4997334;28;20065;-90
2021/03/28 00:30:41;;;;;;;9.48;2.95;;;6.60;99.90;;;;;;5000870;28;20129;-91
2021/03/28 00:33:26;;;;;;;9.35;2.80;;;6.60;99.90;;;;;;5007065;28;20036;-90
2021/03/28 00:35:59;;;;;;;10.65;3.33;;;6.60;99.90;;;;;;4997917;28;20030;-91
2021/03/28 00:38:47;;;;;;;11.27;3.47;;;6.60;99.90;;;;;;4983161;28;20486;-90
2021/03/28 00:41:40;;;;;;;12.18;3.47;;;6.60;99.90;;;;;;5006399;28;20040;-90
2021/03/28 00:44:08;;;;;;;9.30;2.95;;;6.60;99.90;;;;;;4998288;28;20490;-90
2021/03/28 00:46:44;;;;;;;13.32;3.53;;;6.60;99.90;;;;;;4997150;28;20030;-90
2021/03/28 00:49:38;;;;;;;11.23;4.05;;;6.60;99.90;;;;;;4990709;28;20382;-90
2021/03/28 00:52:14;;;;;;;12.00;3.97;;;6.60;99.90;;;;;;5006500;28;20504;-91
2021/03/28 00:54:55;;;;;;;8.90;3.72;;;6.60;99.90;;;;;;4995939;28;20077;-90
2021/03/28 00:57:29;;;;;;;13.25;4.03;;;6.60;99.90;;;;;;5005520;28;20046;-90
2021/03/28 01:00:01;;;;;;;11.63;3.88;;;6.60;99.90;;;;;;4989086;28;20125;-90
2021/03/28 01:02:35;;;;;;;16.15;3.88;;;6.60;99.90;;;;;;5013668;28;20053;-90
2021/03/28 01:05:04;;;;;;;9.73;3.67;;;6.60;99.90;;;;;;5021077;28;20042;-88
2021/03/28 01:07:32;;;;;;;10.48;4.13;;;6.60;99.90;;;;;;4976265;28;20513;-89
2021/03/28 01:10:33;;;;;;;10.13;4.13;;;6.60;99.90;;;;;;5001557;28;20022;-90
2021/03/28 01:13:37;;;;;;;13.73;4.60;;;6.60;99.90;;;;;;5004566;28;20022;-89
2021/03/28 01:16:17;;;;;;;14.65;4.50;;;6.60;99.90;;;;;;4985590;28;20042;-88
2021/03/28 01:18:58;;;;;;;10.13;3.97;;;6.60;99.90;;;;;;4995078;28;20038;-89
2021/03/28 01:21:26;;;;;;;9.85;4.10;;;6.60;99.90;;;;;;5008732;28;20034;-89
2021/03/28 01:24:11;;;;;;;7.50;3.75;;;6.60;99.90;;;;;;4994529;28;20387;-90
2021/03/28 01:26:52;;;;;;;13.18;4.70;;;6.60;99.90;;;;;;4987352;28;20513;-89
2021/03/28 01:29:28;;;;;;;8.95;3.88;;;6.60;99.90;;;;;;5004606;28;20509;-89
2021/03/28 01:32:01;;;;;;;13.57;4.63;;;6.60;99.90;;;;;;4973873;28;20034;-90
2021/03/28 01:34:38;;;;;;;15.00;4.63;;;6.60;99.90;;;;;;4975120;28;20027;-90
2021/03/28 01:37:24;;;;;;;;;;;6.50;99.90;;;;;;4979151;28;20031;-91
2021/03/28 01:40:08;;;;;;;15.02;3.60;;;6.40;99.90;;;;;;4977817;28;19952;-90
2021/03/28 01:43:02;;;;;;;11.57;4.07;;;6.40;99.90;;;;;;4977497;28;20054;-90
2021/03/28 01:45:53;;;;;;;10.98;4.05;;;6.40;99.90;;;;;;4977085;28;20027;-90
2021/03/28 01:48:28;;;;;;;13.23;4.05;;;6.40;99.90;;;;;;4977294;28;20019;-91
2021/03/28 01:51:32;;;;;;;14.13;4.65;;;6.40;99.90;;;;;;4992653;28;20037;-90
2021/03/28 01:54:29;;;;;;;13.45;3.78;;;6.50;99.90;;;;;;4997692;28;20482;-90
2021/03/28 01:57:01;;;;;;;10.18;3.03;;;6.50;99.90;;;;;;4996031;28;20418;-90
2021/03/28 02:00:06;;;;;;;13.57;3.38;;;6.50;99.90;;;;;;4996162;28;20031;-90
2021/03/28 02:02:49;;;;;;;13.95;3.58;;;6.50;99.90;;;;;;4996066;28;20061;-89
2021/03/28 02:05:40;;;;;;;14.13;3.65;;;6.50;99.90;;;;;;4994916;28;20457;-90
2021/03/28 02:08:29;;;;;;;12.13;3.25;;;6.60;99.90;;;;;;4994746;28;20106;-90
2021/03/28 02:10:54;;;;;;;11.07;3.30;;;6.60;99.90;;;;;;4998762;28;20378;-90
2021/03/28 02:13:51;;;;;;;11.70;3.15;;;6.60;99.90;;;;;;4996216;28;20038;-90
2021/03/28 02:16:26;;;;;;;13.88;3.20;;;6.60;99.90;;;;;;4994690;28;20050;-90
2021/03/28 02:19:20;;;;;;;12.38;2.95;;;6.60;99.90;;;;;;4998634;28;20027;-90
2021/03/28 02:21:58;;;;;;;;;;;6.60;99.90;;;;;;4994928;28;20030;-90
2021/03/28 02:24:36;;;;;;;11.23;2.80;;;6.60;99.90;;;;;;4989065;28;19912;-90
2021/03/28 02:27:30;;;;;;;6.78;2.63;;;6.60;99.90;;;;;;4995330;28;20035;-89
2021/03/28 02:29:56;;;;;;;10.40;4.22;;;6.60;99.90;;;;;;4994916;28;20019;-89
2021/03/28 02:32:52;;;;;;;15.93;3.08;;;6.60;99.90;;;;;;4995200;28;20026;-90
2021/03/28 02:35:36;;;;;;;15.23;2.95;;;6.50;99.90;;;;;;4995204;28;20030;-88
2021/03/28 02:38:19;;;;;;;11.55;2.88;;;6.50;99.90;;;;;;4995179;28;20033;-90
2021/03/28 02:41:11;;;;;;;13.90;3.38;;;6.50;99.90;;;;;;4995913;28;20422;-89
2021/03/28 02:43:49;;;;;;;15.65;3.03;;;6.50;99.90;;;;;;4996466;28;20053;-89
2021/03/28 02:46:56;;;;;;;10.15;2.72;;;6.60;99.90;;;;;;4995163;28;20053;-89
2021/03/28 02:49:56;;;;;;;9.75;2.08;;;6.60;99.90;;;;;;4996061;28;20085;-89
2021/03/28 02:52:36;;;;;;;10.05;2.60;;;6.60;99.90;;;;;;4995490;28;20019;-89
2021/03/28 02:55:20;;;;;;;13.52;2.30;;;6.60;99.90;;;;;;4996030;28;20463;-90
2021/03/28 02:58:05;;;;;;;12.00;3.08;;;6.60;99.90;;;;;;4997144;28;20485;-90
2021/03/28 03:00:56;;;;;;;9.57;3.03;;;6.60;99.90;;;;;;4995885;28;20105;-90
2021/03/28 03:03:42;;;;;;;10.55;3.33;;;6.50;99.90;;;;;;4997243;28;20030;-90
2021/03/28 03:06:34;;;;;;;14.13;2.72;;;6.50;99.90;;;;;;4995953;28;20026;-90
2021/03/28 03:09:09;;;;;;;12.00;2.90;;;6.50;99.90;;;;;;4996081;28;20027;-89
2021/03/28 03:12:05;;;;;;;13.75;2.92;;;6.50;99.90;;;;;;4995631;28;20035;-89
2021/03/28 03:14:35;;;;;;;13.70;3.35;;;6.50;99.90;;;;;;4996978;28;20352;-89
2021/03/28 03:17:23;;;;;;;13.90;2.45;;;6.50;99.90;;;;;;4996574;28;20109;-89
2021/03/28 03:20:21;;;;;;;13.10;3.05;;;6.50;99.90;;;;;;4995457;28;20033;-89
2021/03/28 03:23:02;;;;;;;12.77;2.58;;;6.50;99.90;;;;;;4982212;28;20092;-89
2021/03/28 03:25:50;;;;;;;;;;;;;;;;;;;;;
2021/03/28 03:28:48;;;;;;;12.23;2.50;;;6.50;99.90;;;;;;4996326;28;20036;-90
2021/03/28 03:31:30;;;;;;;15.52;2.95;;;6.50;99.90;;;;;;4995256;28;20474;-90
2021/03/28 03:34:30;;;;;;;13.75;2.80;;;6.50;99.90;;;;;;4994997;28;20033;-90
2021/03/28 03:37:21;;;;;;;12.55;2.58;;;6.40;99.90;;;;;;4993708;28;20033;-90
2021/03/28 03:40:07;;;;;;;7.60;2.50;;;6.50;99.90;;;;;;4994964;28;20018;-89
2021/03/28 03:42:38;;;;;;;7.85;2.22;;;6.40;99.90;;;;;;4994568;28;20034;-90
2021/03/28 03:45:42;;;;;;;8.68;2.00;;;6.40;99.90;;;;;;4994870;28;20084;-88
2021/03/28 03:48:10;;;;;;;10.00;2.93;;;6.40;99.90;;;;;;4996104;28;20033;-89
2021/03/28 03:51:05;;;;;;;8.60;2.17;;;6.40;99.90;;;;;;4994959;28;20031;-89
2021/03/28 03:54:05;;;;;;;10.73;2.60;;;6.40;99.90;;;;;;4995189;28;20104;-90
2021/03/28 03:56:39;;;;;;;11.85;2.28;;;6.40;99.90;;;;;;4995015;28;20066;-90
2021/03/28 03:59:10;;;;;;;12.13;3.22;;;6.40;99.90;;;;;;4994641;28;20038;-90
2021/03/28 04:01:58;;;;;;;9.93;3.15;;;6.40;99.90;;;;;;4994672;28;20026;-89
2021/03/28 04:04:43;;;;;;;11.32;2.65;;;6.40;99.90;;;;;;4995110;28;20026;-90
2021/03/28 04:07:27;;;;;;;7.57;2.35;;;6.50;99.90;;;;;;4994572;28;20060;-90
2021/03/28 04:10:03;;;;;;;9.82;2.30;;;6.50;99.90;;;;;;4995903;28;20023;-89
2021/03/28 04:12:29;;;;;;;14.68;3.55;;;6.60;99.90;;;;;;4978743;28;20038;-88
2021/03/28 04:15:32;;;;;;;10.30;2.80;;;6.60;99.90;;;;;;4994580;28;20028;-90
2021/03/28 04:18:15;;;;;;;9.35;2.33;;;6.60;99.90;;;;;;4993984;28;20050;-90
2021/03/28 04:21:19;;;;;;;15.98;3.25;;;6.60;99.90;;;;;;4994553;28;20037;-90
2021/03/28 04:24:05;;;;;;;10.32;2.40;;;6.60;99.90;;;;;;4973983;28;20162;-90
2021/03/28 04:26:48;;;;;;;11.50;2.85;;;6.60;99.90;;;;;;4993353;28;20125;-90
2021/03/28 04:29:16;;;;;;;9.20;2.60;;;6.60;99.90;;;;;;4995669;28;20425;-90
2021/03/28 04:32:00;;;;;;;11.52;2.83;;;6.60;99.90;;;;;;4995456;28;20085;-91
2021/03/28 04:34:42;;;;;;;11.15;2.63;;;6.60;99.90;;;;;;4994287;28;20022;-89
2021/03/28 04:37:45;;;;;;;9.60;2.42;;;6.60;99.90;;;;;;4994320;28;20541;-90
2021/03/28 04:40:31;;;;;;;11.07;2.50;;;6.70;99.90;;;;;;4995286;28;20026;-89
2021/03/28 04:43:45;;;;;;;12.50;3.05;;;6.60;99.90;;;;;;4993763;28;20030;-89
2021/03/28 04:46:42;;;;;;;10.07;2.53;;;6.70;99.90;;;;;;4990087;28;20097;-90
2021/03/28 04:49:25;;;;;;;10.45;2.40;;;6.60;99.90;;;;;;4992141;28;20053;-89
2021/03/28 04:52:35;;;;;;;11.57;2.45;;;6.60;99.90;;;;;;4991783;28;20484;-89
2021/03/28 04:55:39;;;;;;;10.88;2.33;;;6.70;99.90;;;;;;4982218;28;20125;-90
2021/03/28 04:58:26;;;;;;;15.43;3.73;;;6.70;99.90;;;;;;4993002;28;20121;-90
2021/03/28 05:01:20;;;;;;;7.65;2.50;;;6.70;99.90;;;;;;4993262;28;20031;-90
2021/03/28 05:04:15;;;;;;;8.57;2.22;;;6.70;99.90;;;;;;4987774;28;20030;-90
2021/03/28 05:07:14;;;;;;;13.93;3.30;;;6.70;99.90;;;;;;4994659;28;20101;-90
2021/03/28 05:10:15;;;;;;;12.30;2.88;;;6.70;99.90;;;;;;4973070;28;20430;-89
2021/03/28 05:13:11;;;;;;;8.25;2.80;;;6.70;99.90;;;;;;4972444;28;20089;-90
2021/03/28 05:16:02;;;;;;;6.00;2.47;;;6.70;99.90;;;;;;4972286;28;20054;-90
2021/03/28 05:18:47;;;;;;;9.43;2.50;;;6.70;99.90;;;;;;4974152;28;20084;-89
2021/03/28 05:21:43;;;;;;;7.75;2.33;;;6.70;99.90;;;;;;4972677;28;20073;-89
2021/03/28 05:24:16;;;;;;;13.15;3.22;;;6.80;99.90;;;;;;4972372;28;20551;-89
2021/03/28 05:27:11;;;;;;;10.60;2.22;;;6.80;99.90;;;;;;4972183;28;20031;-89
2021/03/28 05:30:08;;;;;;;11.85;2.92;;;6.80;99.90;;;;;;4970869;28;20034;-89
2021/03/28 05:32:34;;;;;;;10.13;2.50;;;6.80;99.90;;;;;;4972308;28;20026;-91
2021/03/28 05:38:41;;;;;;;12.25;2.72;;;7.00;99.90;;;;;;4974519;28;20046;-90
2021/03/28 05:41:31;;;;;;;10.93;2.80;;;7.00;99.90;;;;;;4974297;28;20446;-90
2021/03/28 05:44:37;;;;;;;11.05;2.67;;;7.10;99.90;;;;;;4974138;28;20082;-90
2021/03/28 05:47:43;;;;;;;12.65;3.15;;;7.10;99.90;;;;;;4973908;28;20035;-90
2021/03/28 05:50:41;;;;;;;9.70;2.85;;;7.10;99.90;;;;;;4973984;28;20077;-89
2021/03/28 05:53:45;;;;;;;12.82;3.08;;;7.20;99.90;;;;;;4939874;28;20050;-90
2021/03/28 05:56:41;;;;;;;10.32;2.70;;;7.30;99.90;;;;;;4974063;28;20467;-90
2021/03/28 05:59:29;;;;;;;9.07;2.70;;;7.30;99.90;;;;;;4974914;28;20030;-90
2021/03/28 06:02:27;;;;;;;11.15;3.25;;;7.30;99.90;;;;;;4973986;28;20050;-90
2021/03/28 06:05:41;;;;;;;12.20;3.22;;;7.40;99.90;;;;;;4973905;28;20027;-90
2021/03/28 06:08:44;;;;;;;8.43;2.42;;;7.40;99.90;;;;;;4944022;28;20121;-90
2021/03/28 06:11:42;;;;;;;6.93;2.50;;;7.50;99.90;;;;;;4973931;28;20029;-91
2021/03/28 06:14:40;;;;;;;12.07;3.13;;;7.60;99.90;;;;;;4975270;28;20455;-90
2021/03/28 06:17:34;;;;;;;10.35;2.63;;;7.50;99.90;;;;;;4975170;28;20051;-90
2021/03/28 06:20:33;;;;;;;8.48;2.30;;;7.60;99.90;;;;;;4990735;28;20111;-91
2021/03/28 06:23:24;;;;;;;7.90;2.50;;;7.60;99.90;;;;;;4976920;28;20042;-90
2021/03/28 06:26:51;;;;;;;8.63;2.20;;;7.70;99.90;;;;;;4994456;28;20034;-92
2021/03/28 06:29:57;;;;;;;10.65;2.83;;;7.70;99.90;;;;;;4927447;29;20088;-89
2021/03/28 06:33:06;;;;;;;9.98;3.05;;;7.70;99.90;;;;;;4975206;28;20036;-89
2021/03/28 06:35:58;;;;;;;8.77;2.13;;;7.80;99.90;;;;;;4989686;28;20031;-90
2021/03/28 06:39:11;;;;;;;12.20;2.53;;;7.90;99.90;;;;;;4991548;28;20018;-90
2021/03/28 06:42:08;;;;;;;7.65;2.50;;;7.90;99.90;;;;;;5016757;28;20072;-91
2021/03/28 06:45:21;;;;;;;9.85;2.22;;;8.00;99.90;;;;;;5017501;28;20072;-90
2021/03/28 06:48:17;;;;;;;10.93;2.50;;;8.10;99.90;;;;;;4978761;28;20451;-90
2021/03/28 06:51:20;;;;;;;8.20;2.78;;;8.10;99.90;;;;;;4950082;28;20039;-91
2021/03/28 06:54:32;;;;;;;13.90;3.15;;;8.10;99.90;;;;;;5016812;28;20085;-89
2021/03/28 06:57:33;;;;;;;10.45;2.33;;;8.10;99.90;;;;;;4993523;28;20058;-90
2021/03/28 07:00:12;;;;;;;;;;;;;;;;;;;;;
2021/03/28 07:02:56;;;;;;;8.68;2.70;;;8.20;99.90;;;;;;4994396;28;20397;-89
2021/03/28 07:05:47;;;;;;;8.73;2.08;;;8.20;99.90;;;;;;4992174;28;20037;-90
2021/03/28 07:09:01;;;;;;;11.77;3.00;;;8.20;99.90;;;;;;5010036;28;20059;-90
2021/03/28 07:14:50;;;;;;;10.40;2.30;;;8.40;99.90;;;;;;4982642;28;19972;-91
2021/03/28 07:17:43;;;;;;;12.70;2.60;;;8.50;99.90;;;;;;4990008;28;20065;-90
2021/03/28 07:20:28;;;;;;;8.13;2.75;;;8.60;99.90;;;;;;4993032;28;20031;-91
2021/03/28 07:23:32;;;;;;;12.05;2.75;;;8.70;99.90;;;;;;5013490;28;20042;-90
2021/03/28 07:26:40;;;;;;;8.70;2.33;;;8.70;99.90;;;;;;4993422;28;20169;-90
2021/03/28 07:29:49;;;;;;;11.43;3.05;;;8.80;99.90;;;;;;4992419;28;20080;-90
2021/03/28 07:32:36;;;;;;;11.02;2.63;;;8.90;99.90;;;;;;5013134;28;20023;-91
2021/03/28 07:35:43;;;;;;;11.25;2.90;;;9.00;99.90;;;;;;4993072;28;20022;-91
2021/03/28 07:38:56;;;;;;;9.50;2.97;;;9.10;99.90;;;;;;5017083;28;20054;-90
2021/03/28 07:45:20;;;;;;;;;;;;;;;;;;;;;
2021/03/28 07:48:07;;;;;;;9.05;2.83;;;9.40;99.90;;;;;;4993746;28;20038;-90
2021/03/28 07:51:25;;;;;;;9.48;2.90;;;9.50;99.90;;;;;;4993172;28;20029;-91
2021/03/28 07:54:22;;;;;;;11.02;3.17;;;9.60;99.90;;;;;;4992205;28;20030;-91
2021/03/28 07:57:29;;;;;;;9.70;3.08;;;9.70;99.90;;;;;;4993292;28;20041;-91
2021/03/28 08:00:41;;;;;;;12.05;3.10;;;9.90;99.90;;;;;;4992806;28;20105;-91
2021/03/28 08:06:53;;;;;;;8.10;2.75;;;9.90;99.90;;;;;;4993271;28;20042;-91
2021/03/28 08:13:46;;;;;;;10.35;3.75;;;9.80;99.90;;;;;;4945867;29;20047;-91
2021/03/28 08:16:43;;;;;;;11.40;2.87;;;9.90;99.90;;;;;;4952516;29;20095;-91
2021/03/28 08:20:09;;;;;;;10.77;3.45;;;9.90;99.90;;;;;;4952481;28;20067;-91
2021/03/28 08:26:42;;;;;;;10.13;3.40;;;10.00;99.90;;;;;;4972633;28;20082;-92
2021/03/28 08:32:56;;;;;;;8.38;3.08;;;10.20;99.90;;;;;;4983923;28;20486;-93
2021/03/28 08:35:47;;;;;;;11.65;3.30;;;10.30;99.90;;;;;;4988854;28;20030;-92
2021/03/28 08:38:57;;;;;;;9.63;3.22;;;10.40;99.90;;;;;;4973123;28;20030;-91
2021/03/28 08:45:31;;;;;;;9.93;3.00;;;10.70;99.90;;;;;;4956976;28;20031;-93
2021/03/28 08:48:44;;;;;;;;;;;;;;;;;;;;;
2021/03/28 08:52:17;;;;;;;;;;;;;;;;;;;;;
2021/03/28 08:56:25;;;;;;;;;;;;;;;;;;;;;
2021/03/28 09:09:32;;;;;;;10.05;3.55;;;12.50;99.10;;;;;;4874576;29;20044;-92
2021/03/28 09:12:34;;;;;;;10.02;2.40;;;12.40;99.40;;;;;;4879113;29;20028;-92
2021/03/28 09:15:43;;;;;;;9.57;2.45;;;12.50;99.50;;;;;;4893959;29;20050;-92
2021/03/28 09:19:10;;;;;;;14.15;2.88;;;12.70;98.90;;;;;;4894821;29;20055;-92
2021/03/28 09:22:17;;;;;;;13.43;2.85;;;12.90;97.30;;;;;;4932939;29;20123;-91
2021/03/28 09:25:13;;;;;;;9.85;4.07;;;13.00;95.60;;;;;;4936507;29;20027;-90
2021/03/28 09:28:40;;;;;;;9.27;2.95;;;13.00;95.80;;;;;;4950819;29;20061;-90
2021/03/28 09:31:57;;;;;;;11.02;2.60;;;13.10;95.10;;;;;;4876787;29;20529;-90
2021/03/28 09:35:02;;;;;;;;;;;;;;;;;;;;;
2021/03/28 09:37:54;;;;;;;12.00;3.28;;;13.30;95.80;;;;;;4986120;28;20541;-89
2021/03/28 09:44:39;;;;;;;;;;;;;;;;;;;;;
2021/03/28 09:47:31;;;;;;;8.88;2.70;;;13.20;94.80;;;;;;4984781;28;20034;-92
2021/03/28 09:50:15;;;;;;;10.13;3.25;;;13.40;94.10;;;;;;4954112;28;20035;-92
2021/03/28 09:53:29;;;;;;;12.13;3.15;;;13.50;94.70;;;;;;4953519;28;20030;-91
2021/03/28 09:59:52;;;;;;;8.82;3.00;;;13.40;93.60;;;;;;4982271;28;20038;-93
2021/03/28 10:02:48;;;;;;;10.15;2.45;;;13.30;94.10;;;;;;4976601;28;20519;-91
2021/03/28 10:05:33;;;;;;;9.23;2.20;;;13.30;94.50;;;;;;4976018;28;20026;-91
2021/03/28 10:08:20;;;;;;;11.98;2.78;;;13.30;93.50;;;;;;4994240;28;20038;-91
2021/03/28 10:11:22;;;;;;;9.30;2.13;;;13.30;92.60;;;;;;4975183;28;20076;-91
2021/03/28 10:14:43;;;;;;;10.65;3.08;;;13.50;92.20;;;;;;4991583;28;20026;-91
2021/03/28 10:17:52;;;;;;;6.75;1.95;;;13.80;91.50;;;;;;4938329;29;20110;-92
2021/03/28 10:21:13;;;;;;;7.05;2.17;;;14.30;90.70;;;;;;4990243;28;20034;-92
2021/03/28 10:24:04;;;;;;;8.18;2.58;;;14.50;88.60;;;;;;4995964;28;20343;-92
2021/03/28 10:27:29;;;;;;;7.68;2.05;;;14.60;89.80;;;;;;4994864;28;20034;-91
2021/03/28 10:30:56;;;;;;;9.35;1.90;;;14.70;90.10;;;;;;4977635;28;20081;-92
2021/03/28 10:37:43;;;;;;;;;;;;;;;;;;;;;
2021/03/28 10:41:21;;;;;;;7.75;1.80;;;14.50;85.10;;;;;;4975794;28;20030;-92
2021/03/28 10:44:24;;;;;;;9.40;2.33;;;14.20;85.10;;;;;;4975792;28;20058;-91
2021/03/28 10:47:43;;;;;;;;;;;;;;;;;;;;;
2021/03/28 10:51:13;;;;;;;;;;;;;;;;;;;;;
2021/03/28 10:54:38;;;;;;;;;;;;;;;;;;;;;
2021/03/28 11:01:19;;;;;;;6.45;1.95;;;13.20;90.50;;;;;;4974345;28;20037;-92
2021/03/28 11:11:05;;;;;;;8.48;2.35;;;12.70;91.20;;;;;;4953579;29;20035;-91
2021/03/28 11:22:03;;;;;;;;;;;;;;;;;;;;;
2021/03/28 11:25:02;;;;;;;8.80;1.80;;;12.30;92.70;;;;;;4973572;28;20031;-88
2021/03/28 11:28:18;;;;;;;9.55;1.90;;;12.30;92.80;;;;;;4968235;28;20054;-89
2021/03/28 11:31:34;;;;;;;;;;;;;;;;;;;;;
2021/03/28 11:38:15;;;;;;;8.27;1.77;;;11.90;96.50;;;;;;4878636;29;20044;-92
2021/03/28 11:41:28;;;;;;;;;;;;;;;;;;;;;
2021/03/28 11:44:47;;;;;;;7.32;1.75;;;11.70;98.40;;;;;;4901797;29;20046;-91
2021/03/28 11:47:44;;;;;;;;;;;;;;;;;;;;;
2021/03/28 11:54:42;;;;;;;10.40;2.17;;;11.50;97.10;;;;;;4877882;29;20067;-90
2021/03/28 11:58:06;;;;;;;;;;;;;;;;;;;;;
2021/03/28 12:01:08;;;;;;;7.28;2.13;;;11.60;96.40;;;;;;4878537;29;20048;-90
2021/03/28 12:13:56;;;;;;;12.40;2.85;;;12.50;96.50;;;;;;4819390;29;20029;-91
2021/03/28 12:16:53;;;;;;;6.68;2.13;;;12.60;95.40;;;;;;4824855;29;20037;-90
2021/03/28 12:20:33;;;;;;;;;;;;;;;;;;;;;
2021/03/28 12:23:04;;;;;;;10.02;2.45;;;12.60;95.80;;;;;;4896294;29;20543;-89
2021/03/28 12:26:09;;;;;;;;;;;;;;;;;;;;;
2021/03/28 12:32:40;;;;;;;10.55;2.80;;;12.50;95.70;;;;;;4974563;28;20022;-89
2021/03/28 12:36:22;;;;;;;;;;;;;;;;;;;;;
2021/03/28 12:39:55;;;;;;;9.23;2.70;;;12.40;95.20;;;;;;4975492;28;20026;-91
2021/03/28 12:42:40;;;;;;;;;;;;;;;;;;;;;
2021/03/28 12:45:31;;;;;;;8.73;2.55;;;12.30;95.50;;;;;;4974299;28;20426;-89
2021/03/28 12:48:23;;;;;;;10.00;2.42;;;12.40;95.70;;;;;;4990056;28;20510;-90
2021/03/28 12:55:27;;;;;;;;;;;;;;;;;;;;;
2021/03/28 12:58:53;;;;;;;9.55;2.30;;;12.40;95.90;;;;;;4953271;29;20114;-89
2021/03/28 13:16:28;;;;;;;;;;;;;;;;;;;;;
2021/03/28 13:19:38;;;;;;;5.47;1.92;;;12.30;94.90;;;;;;4892477;29;20052;-91
2021/03/28 13:27:15;;;;;;;8.98;2.30;;;12.30;95.60;;;;;;4885762;29;20040;-90
2021/03/28 13:34:20;;;;;;;;;;;;;;;;;;;;;
2021/03/28 13:54:36;;;;;;;;;;;;;;;;;;;;;
2021/03/28 13:57:45;;;;;;;8.23;2.33;;;12.40;96.10;;;;;;5032087;28;20037;-89
2021/03/28 14:00:29;;;;;;;12.35;3.08;;;12.40;96.30;;;;;;5030186;28;20033;-89
2021/03/28 14:03:19;;;;;;;4.65;1.77;;;12.40;96.50;;;;;;5022793;28;20033;-90
2021/03/28 14:05:47;;;;;;;10.23;2.88;;;12.40;96.70;;;;;;5027787;28;20037;-90
2021/03/28 14:08:36;;;;;;;7.80;2.20;;;12.40;96.60;;;;;;5036808;28;20152;-90
2021/03/28 14:11:04;;;;;;;5.60;1.73;;;12.40;96.90;;;;;;5041361;28;20028;-90
2021/03/28 14:14:00;;;;;;;6.93;2.28;;;12.40;97.30;;;;;;5054261;28;20064;-89
2021/03/28 14:16:53;;;;;;;9.98;2.55;;;12.40;96.90;;;;;;5015612;28;20038;-91
2021/03/28 14:19:51;;;;;;;8.23;2.15;;;12.40;97.00;;;;;;5050870;28;20090;-90
2021/03/28 14:22:55;;;;;;;8.80;2.38;;;12.40;97.10;;;;;;5067623;28;20086;-89
2021/03/28 14:25:43;;;;;;;9.38;2.60;;;12.40;97.40;;;;;;5034775;28;20068;-89
2021/03/28 14:28:59;;;;;;;10.27;2.92;;;12.50;97.60;;;;;;5037566;28;20431;-89
2021/03/28 14:31:46;;;;;;;10.55;2.35;;;12.50;96.70;;;;;;5045781;28;20059;-89
2021/03/28 14:34:58;;;;;;;16.38;3.08;;;12.60;97.20;;;;;;5021181;28;20566;-89
2021/03/28 14:38:31;;;;;;;;;;;;;;;;;;;;;
2021/03/28 14:41:54;;;;;;;11.93;2.72;;;12.80;96.00;;;;;;5049607;28;20021;-90
2021/03/28 14:44:59;;;;;;;6.57;2.72;;;12.90;96.20;;;;;;4984526;28;20106;-90
2021/03/28 14:48:07;;;;;;;10.82;2.90;;;12.90;96.40;;;;;;5036373;28;20075;-90
2021/03/28 14:50:57;;;;;;;12.00;3.45;;;12.90;96.30;;;;;;5036192;28;20087;-90
2021/03/28 14:53:47;;;;;;;10.48;3.50;;;12.90;96.60;;;;;;5035994;28;20469;-89
2021/03/28 15:00:40;;;;;;;11.60;3.45;;;12.90;97.10;;;;;;5044809;28;20052;-90
2021/03/28 15:03:45;;;;;;;11.50;4.75;;;13.00;97.00;;;;;;5018920;28;20029;-89
2021/03/28 15:06:33;;;;;;;9.82;4.88;;;13.00;96.40;;;;;;5033048;28;20453;-90
2021/03/28 15:09:13;;;;;;;10.75;4.43;;;13.00;96.20;;;;;;5016387;28;20528;-90
2021/03/28 15:11:58;;;;;;;12.60;4.80;;;13.00;96.40;;;;;;5000607;28;20033;-90
2021/03/28 15:14:54;;;;;;;10.50;4.65;;;13.00;96.70;;;;;;5030724;28;20593;-90
2021/03/28 15:17:37;;;;;;;11.80;5.32;;;13.00;96.50;;;;;;5051653;28;20094;-90
2021/03/28 15:20:41;;;;;;;9.48;4.35;;;13.10;96.50;;;;;;5056973;28;20446;-90
2021/03/28 15:23:48;;;;;;;;;;;;;;;;;;;;;
2021/03/28 15:26:50;;;;;;;;;;;;;;;;;;;;;
2021/03/28 15:30:04;;;;;;;12.57;3.95;;;13.10;95.90;;;;;;5061085;28;20044;-89
2021/03/28 15:32:58;;;;;;;8.88;4.07;;;13.20;96.20;;;;;;5053403;28;20519;-89
2021/03/28 15:36:18;;;;;;;10.55;3.67;;;13.20;96.00;;;;;;5036290;28;20078;-88
2021/03/28 15:38:46;;;;;;;11.07;3.70;;;13.20;95.60;;;;;;5002391;28;20060;-88
2021/03/28 15:41:31;;;;;;;10.43;3.45;;;13.10;96.10;;;;;;5055540;28;20033;-88
2021/03/28 15:44:46;;;;;;;12.13;3.85;;;13.10;96.10;;;;;;5054230;28;20482;-88
2021/03/28 15:47:48;;;;;;;12.25;3.35;;;13.10;96.10;;;;;;5042778;28;20072;-89
2021/03/28 15:50:43;;;;;;;10.68;3.67;;;13.20;96.40;;;;;;5038353;28;20029;-90
2021/03/28 15:53:55;;;;;;;10.90;3.22;;;13.20;96.40;;;;;;5055857;28;20396;-89
2021/03/28 15:56:40;;;;;;;;;;;13.20;96.70;;;;;;5026653;28;20052;-89
2021/03/28 15:59:51;;;;;;;6.85;3.00;;;13.10;96.60;;;;;;5024089;28;19946;-90
2021/03/28 16:03:02;;;;;;;8.73;2.95;;;13.10;96.80;;;;;;5034945;28;20095;-90
2021/03/28 16:06:13;;;;;;;8.18;2.95;;;13.10;96.90;;;;;;5048274;28;20474;-90
2021/03/28 16:13:01;;;;;;;8.15;3.00;;;13.10;96.50;;;;;;4959472;28;20026;-90
2021/03/28 16:16:13;;;;;;;8.23;2.53;;;13.00;96.90;;;;;;4992911;28;20066;-90
2021/03/28 16:19:11;;;;;;;9.32;3.10;;;13.00;97.30;;;;;;4960961;28;20026;-90
2021/03/28 16:25:50;;;;;;;9.20;2.70;;;13.00;97.40;;;;;;4961819;28;20545;-90
2021/03/28 16:28:47;;;;;;;9.57;3.25;;;13.00;97.60;;;;;;4978139;28;20087;-90
2021/03/28 16:31:41;;;;;;;10.73;2.72;;;13.00;97.50;;;;;;4970685;28;20050;-89
2021/03/28 16:37:39;;;;;;;7.25;2.92;;;12.90;97.50;;;;;;4998926;28;20036;-89
2021/03/28 16:40:50;;;;;;;10.25;3.35;;;12.90;97.50;;;;;;5012520;28;20164;-89
2021/03/28 16:44:06;;;;;;;7.78;2.40;;;12.90;97.30;;;;;;4994666;28;20124;-88
2021/03/28 16:47:02;;;;;;;9.93;2.78;;;12.90;97.70;;;;;;5033030;28;20124;-89
2021/03/28 16:49:58;;;;;;;8.63;2.63;;;12.80;98.10;;;;;;5018561;28;20044;-89
2021/03/28 16:52:46;;;;;;;8.10;2.42;;;12.90;98.00;;;;;;5008386;28;20037;-89
2021/03/28 16:55:33;;;;;;;9.60;2.67;;;12.90;98.30;;;;;;5029740;28;20048;-89
2021/03/28 16:58:09;;;;;;;10.25;2.75;;;12.90;98.50;;;;;;5052365;28;20412;-89
2021/03/28 17:00:39;;;;;;;9.00;2.88;;;12.80;98.40;;;;;;5034219;28;20083;-89
2021/03/28 17:03:25;;;;;;;7.90;2.85;;;12.80;98.50;;;;;;5034393;28;20480;-89
2021/03/28 17:06:01;;;;;;;10.38;2.80;;;12.80;98.30;;;;;;5034462;28;20033;-90
2021/03/28 17:08:39;;;;;;;9.82;2.50;;;12.80;98.70;;;;;;5002268;28;20045;-89
2021/03/28 17:11:29;;;;;;;9.45;2.78;;;12.80;98.80;;;;;;5034339;28;20029;-89
2021/03/28 17:14:08;;;;;;;7.28;2.20;;;12.80;98.60;;;;;;5052255;28;20041;-88
2021/03/28 17:17:13;;;;;;;6.85;1.90;;;12.80;98.80;;;;;;5034677;28;20040;-89
2021/03/28 17:19:43;;;;;;;9.32;2.75;;;12.80;98.90;;;;;;5034354;28;20491;-89
2021/03/28 17:22:49;;;;;;;9.82;2.80;;;12.80;99.00;;;;;;5034348;28;20040;-89
2021/03/28 17:25:40;;;;;;;8.48;2.30;;;12.70;98.60;;;;;;5034042;28;20375;-89
2021/03/28 17:28:33;;;;;;;8.95;4.10;;;12.70;98.80;;;;;;5034711;28;20123;-89
2021/03/28 17:31:40;;;;;;;11.52;4.50;;;12.70;98.70;;;;;;5040146;28;20040;-89
2021/03/28 17:34:14;;;;;;;12.90;6.20;;;12.70;99.20;;;;;;5064190;28;20166;-89
2021/03/28 17:37:14;;;;;;;20.90;8.85;;;12.60;99.30;;;;;;5037945;28;20032;-88
2021/03/28 17:40:09;;;;;;;;;;;;;;;;;;;;;
2021/03/28 17:42:41;;;;;;;15.23;7.10;;;12.60;99.60;;;;;;5071034;28;20033;-88
2021/03/28 17:45:48;;;;;;;;;;;;;;;;;;;;;
2021/03/28 17:48:26;;;;;;;9.48;3.80;;;12.50;99.20;;;;;;5070765;28;20049;-88
2021/03/28 17:52:00;;;;;;;;;;;;;;;;;;;;;
2021/03/28 17:55:17;;;;;;;11.07;3.22;;;12.50;99.60;;;;;;5038712;28;20052;-88
2021/03/28 17:58:19;;;;;;;;;;;;;;;;;;;;;
2021/03/28 18:01:18;;;;;;;11.05;2.92;;;12.40;99.70;;;;;;5047726;28;20043;-88
2021/03/28 18:03:51;;;;;;;7.88;2.63;;;12.40;99.70;;;;;;5020006;28;20561;-89
2021/03/28 18:06:35;;;;;;;8.23;2.67;;;12.30;99.80;;;;;;5013405;28;20037;-89
2021/03/28 18:09:23;;;;;;;8.73;2.35;;;12.30;99.90;;;;;;5015121;28;20033;-89
2021/03/28 18:11:54;;;;;;;10.02;2.80;;;12.30;99.90;;;;;;5013037;28;20115;-88
2021/03/28 18:14:33;;;;;;;9.07;2.60;;;12.30;99.90;;;;;;5013629;28;20061;-89
2021/03/28 18:17:02;;;;;;;7.65;2.15;;;12.30;99.90;;;;;;5023512;28;20032;-88
2021/03/28 18:19:33;;;;;;;11.23;2.45;;;12.20;99.90;;;;;;5036576;28;20048;-89
2021/03/28 18:22:43;;;;;;;6.85;2.45;;;12.20;99.90;;;;;;5036900;28;20112;-89